Etusivu
METAR-TAF:

METAR-TAF

Lentoasemat :

Dakar, Senegal

Leveyspiiri: 14-44N, Pituuspiiri: 017-30W, korkeus merenpinnasta: 27 m

Tämänhetkinen sää

Tämä raportti tehtiin 37 minuuttia sitten, kello 09.00 UTC
Tuuli 8 kn koillisesta
Lämpötila 24°C
Kosteus 69%
Ilmanpaine 1010 hPa
Näkyvyys: 6000 m

METAR: GOOY 130900Z 04008KT 6000 NSC 24/18 Q1010

Aika: 09:37 (09:37 UTC)

Sääennuste

Tämä raportti tehtiin 4 tuntia ja 7 minuuttia sitten, kello 05.30 UTC
Ennuste voimassa 13. päivästä klo 06 UTC - 14. päivään klo 12 UTC
Tuuli 10 kn pohjoisesta/koillisesta
Näkyvyys: 8000 m

TAF: GOOY 130530Z 1306/1412 03010KT 8000 NSC

Säähavainnot ja -ennusteet yli 4000 lentoasemalta (METAR- ja TAF-raportit).

Käytössä olevat sääasemat on merkitty karttaan keltaisilla ja punaisilla pisteillä.

Aseta hiiri pisteen päälle nähdäksesi sääaseman nimen.

Klikkaa sitten nähdäksesi säähavainnot ja -ennusteet.

Kartan vaihtaminen: klikkaa mustalla rastilla varustettuja vihreitä pisteitä, niin voit zoomata sisään; viivalla varustettua vihreää pistettä, niin voit zoomata ulos tai vihreitä nuolia, niin pääset viereisille kartoille.


METAR-TAF: